Hg 306 Tobis — OUPS — position and weather

sailwx.info

Track history (hours):
 
Tides and Currents Weather Stations Pressure Air Temp Water Temp Dewpoint Dewpoint Depression Visibility Wind Speed Wind Dir Waves Ship Positions

Hg 306 Tobis

Last reported at 2016-Dec-06 11:27 UTC. Time now 2016-Dec-06 12:14 UTC.
Position N 58°16' E 005°39'.

Length 40 m; draft 6.4 m.

Type: Fishing. MMSI: 219013001.

Date/timePositionNaut miles runAvg speedWind from/ knotsBaromVisibWave heightAir tempDewpointWater temp
2016-Dec-06 11:27N 58°16' E 005°39'1410.7
2016-Dec-06 10:08N 58°09' E 006°02'610.4
2016-Dec-06 09:33N 58°06' E 006°12'1010.3
2016-Dec-06 08:33N 58°01' E 006°28'1010.5
2016-Dec-06 07:33N 57°54' E 006°43'1010.0
2016-Dec-06 06:34N 57°51' E 007°01'96 7.2
2016-Dec-05 17:16N 57°36' E 009°59'0 0.0
2016-Dec-05 15:29N 57°36' E 009°59'0 0.0
2016-Dec-05 14:33N 57°36' E 009°59'0 0.0
2016-Dec-05 13:34N 57°36' E 009°59'  
2016-Dec-01 22:16N 57°07' E 008°36'4 5.9
2016-Dec-01 21:33N 57°10' E 008°30'1110.4
2016-Dec-01 20:32N 57°16' E 008°14'5010.1
2016-Dec-01 15:33N 57°47' E 006°60'10 9.7
2016-Dec-01 14:33N 57°53' E 006°46'10 9.9
2016-Dec-01 13:33N 57°59' E 006°31'10 9.8
2016-Dec-01 12:33N 58°04' E 006°16'20 9.5
2016-Dec-01 10:24N 58°17' E 005°45'17 9.1
2016-Dec-01 08:34N 58°28' E 005°22'9 9.3
2016-Dec-01 07:33N 58°35' E 005°10'10 9.7
2016-Dec-01 06:34N 58°43' E 004°58'  
Track history (hours):
 
Tides and Currents Weather Stations Pressure Air Temp Water Temp Dewpoint Dewpoint Depression Visibility Wind Speed Wind Dir Waves Ship Positions

Hg 306 Tobis

Last reported at 2016-Dec-06 11:27 UTC. Time now 2016-Dec-06 12:14 UTC.
Position N 58°16' E 005°39'.

Length 40 m; draft 6.4 m.

Type: Fishing. MMSI: 219013001.

Date/timePositionNaut miles runAvg speedWind from/ knotsBaromVisibWave heightAir tempDewpointWater temp
2016-Dec-06 11:27N 58°16' E 005°39'1410.7
2016-Dec-06 10:08N 58°09' E 006°02'610.4
2016-Dec-06 09:33N 58°06' E 006°12'1010.3
2016-Dec-06 08:33N 58°01' E 006°28'1010.5
2016-Dec-06 07:33N 57°54' E 006°43'1010.0
2016-Dec-06 06:34N 57°51' E 007°01'96 7.2
2016-Dec-05 17:16N 57°36' E 009°59'0 0.0
2016-Dec-05 15:29N 57°36' E 009°59'0 0.0
2016-Dec-05 14:33N 57°36' E 009°59'0 0.0
2016-Dec-05 13:34N 57°36' E 009°59'  
2016-Dec-01 22:16N 57°07' E 008°36'4 5.9
2016-Dec-01 21:33N 57°10' E 008°30'1110.4
2016-Dec-01 20:32N 57°16' E 008°14'5010.1
2016-Dec-01 15:33N 57°47' E 006°60'10 9.7
2016-Dec-01 14:33N 57°53' E 006°46'10 9.9
2016-Dec-01 13:33N 57°59' E 006°31'10 9.8
2016-Dec-01 12:33N 58°04' E 006°16'20 9.5
2016-Dec-01 10:24N 58°17' E 005°45'17 9.1
2016-Dec-01 08:34N 58°28' E 005°22'9 9.3
2016-Dec-01 07:33N 58°35' E 005°10'10 9.7
2016-Dec-01 06:34N 58°43' E 004°58'  

Dump ship's entire track history